sensor_id;sensor_type;location;lat;lon;timestamp;temperature;humidity
52509;DHT22;38420;53.150;6.370;2023-08-17T00:02:15;16.50;99.90
52509;DHT22;38420;53.150;6.370;2023-08-17T00:04:40;16.50;99.90
52509;DHT22;38420;53.150;6.370;2023-08-17T00:07:06;16.40;99.90
52509;DHT22;38420;53.150;6.370;2023-08-17T00:09:32;16.60;99.90
52509;DHT22;38420;53.150;6.370;2023-08-17T00:11:58;15.60;99.90
52509;DHT22;38420;53.150;6.370;2023-08-17T00:14:24;16.10;99.90
52509;DHT22;38420;53.150;6.370;2023-08-17T00:16:50;16.40;99.90
52509;DHT22;38420;53.150;6.370;2023-08-17T00:19:16;16.40;99.90
52509;DHT22;38420;53.150;6.370;2023-08-17T00:21:43;15.90;99.90
52509;DHT22;38420;53.150;6.370;2023-08-17T00:24:09;15.50;99.90
52509;DHT22;38420;53.150;6.370;2023-08-17T00:26:34;16.30;99.90
52509;DHT22;38420;53.150;6.370;2023-08-17T00:29:00;16.10;99.90
52509;DHT22;38420;53.150;6.370;2023-08-17T00:31:25;15.40;99.90
52509;DHT22;38420;53.150;6.370;2023-08-17T00:33:51;16.00;99.90
52509;DHT22;38420;53.150;6.370;2023-08-17T00:36:17;16.10;99.90
52509;DHT22;38420;53.150;6.370;2023-08-17T00:38:42;15.80;99.90
52509;DHT22;38420;53.150;6.370;2023-08-17T00:41:08;15.40;99.90
52509;DHT22;38420;53.150;6.370;2023-08-17T00:43:33;15.80;99.90
52509;DHT22;38420;53.150;6.370;2023-08-17T00:45:59;16.00;99.90
52509;DHT22;38420;53.150;6.370;2023-08-17T00:48:26;15.60;99.90
52509;DHT22;38420;53.150;6.370;2023-08-17T00:50:54;15.60;99.90
52509;DHT22;38420;53.150;6.370;2023-08-17T00:53:20;15.60;99.90
52509;DHT22;38420;53.150;6.370;2023-08-17T00:55:47;15.60;99.90
52509;DHT22;38420;53.150;6.370;2023-08-17T00:58:13;15.50;99.90
52509;DHT22;38420;53.150;6.370;2023-08-17T01:00:39;15.70;99.90
52509;DHT22;38420;53.150;6.370;2023-08-17T01:03:05;16.00;99.90
52509;DHT22;38420;53.150;6.370;2023-08-17T01:05:30;15.20;99.90
52509;DHT22;38420;53.150;6.370;2023-08-17T01:07:58;15.30;99.90
52509;DHT22;38420;53.150;6.370;2023-08-17T01:10:50;16.10;99.90
52509;DHT22;38420;53.150;6.370;2023-08-17T01:13:18;15.10;99.90
52509;DHT22;38420;53.150;6.370;2023-08-17T01:15:51;15.30;99.90
52509;DHT22;38420;53.150;6.370;2023-08-17T01:18:21;15.30;99.90
52509;DHT22;38420;53.150;6.370;2023-08-17T01:20:49;16.00;99.90
52509;DHT22;38420;53.150;6.370;2023-08-17T01:23:15;15.10;99.90
52509;DHT22;38420;53.150;6.370;2023-08-17T01:25:41;15.90;99.90
52509;DHT22;38420;53.150;6.370;2023-08-17T01:28:07;15.50;99.90
52509;DHT22;38420;53.150;6.370;2023-08-17T01:30:39;16.20;99.90
52509;DHT22;38420;53.150;6.370;2023-08-17T01:33:09;15.70;99.90
52509;DHT22;38420;53.150;6.370;2023-08-17T01:35:39;15.40;99.90
52509;DHT22;38420;53.150;6.370;2023-08-17T01:38:12;16.10;99.90
52509;DHT22;38420;53.150;6.370;2023-08-17T01:40:38;15.40;99.90
52509;DHT22;38420;53.150;6.370;2023-08-17T01:43:04;14.90;99.90
52509;DHT22;38420;53.150;6.370;2023-08-17T01:45:31;15.00;99.90
52509;DHT22;38420;53.150;6.370;2023-08-17T01:47:56;15.50;99.90
52509;DHT22;38420;53.150;6.370;2023-08-17T01:50:22;15.20;99.90
52509;DHT22;38420;53.150;6.370;2023-08-17T01:52:48;14.80;99.90
52509;DHT22;38420;53.150;6.370;2023-08-17T01:55:15;16.00;99.90
52509;DHT22;38420;53.150;6.370;2023-08-17T01:57:41;15.80;99.90
52509;DHT22;38420;53.150;6.370;2023-08-17T02:00:07;14.80;99.90
52509;DHT22;38420;53.150;6.370;2023-08-17T02:02:36;15.90;99.90
52509;DHT22;38420;53.150;6.370;2023-08-17T02:05:02;15.20;99.90
52509;DHT22;38420;53.150;6.370;2023-08-17T02:07:28;15.90;99.90
52509;DHT22;38420;53.150;6.370;2023-08-17T02:09:54;15.50;99.90
52509;DHT22;38420;53.150;6.370;2023-08-17T02:12:19;15.20;99.90
52509;DHT22;38420;53.150;6.370;2023-08-17T02:14:45;15.90;99.90
52509;DHT22;38420;53.150;6.370;2023-08-17T02:17:11;14.70;99.90
52509;DHT22;38420;53.150;6.370;2023-08-17T02:19:36;15.90;99.90
52509;DHT22;38420;53.150;6.370;2023-08-17T02:22:03;15.90;99.90
52509;DHT22;38420;53.150;6.370;2023-08-17T02:24:28;14.60;99.90
52509;DHT22;38420;53.150;6.370;2023-08-17T02:26:54;15.70;99.90
52509;DHT22;38420;53.150;6.370;2023-08-17T02:29:20;15.70;99.90
52509;DHT22;38420;53.150;6.370;2023-08-17T02:31:45;14.50;99.90
52509;DHT22;38420;53.150;6.370;2023-08-17T02:34:11;15.40;99.90
52509;DHT22;38420;53.150;6.370;2023-08-17T02:36:36;15.10;99.90
52509;DHT22;38420;53.150;6.370;2023-08-17T02:39:02;15.30;99.90
52509;DHT22;38420;53.150;6.370;2023-08-17T02:41:28;14.50;99.90
52509;DHT22;38420;53.150;6.370;2023-08-17T02:43:56;15.70;99.90
52509;DHT22;38420;53.150;6.370;2023-08-17T02:46:21;14.80;99.90
52509;DHT22;38420;53.150;6.370;2023-08-17T02:48:47;14.70;99.90
52509;DHT22;38420;53.150;6.370;2023-08-17T02:51:13;14.90;99.90
52509;DHT22;38420;53.150;6.370;2023-08-17T02:53:40;15.40;99.90
52509;DHT22;38420;53.150;6.370;2023-08-17T02:56:06;15.50;99.90
52509;DHT22;38420;53.150;6.370;2023-08-17T02:58:32;15.20;99.90
52509;DHT22;38420;53.150;6.370;2023-08-17T03:00:57;14.70;99.90
52509;DHT22;38420;53.150;6.370;2023-08-17T03:03:23;14.30;99.90
52509;DHT22;38420;53.150;6.370;2023-08-17T03:05:48;15.70;99.90
52509;DHT22;38420;53.150;6.370;2023-08-17T03:08:14;15.70;99.90
52509;DHT22;38420;53.150;6.370;2023-08-17T03:10:40;14.30;99.90
52509;DHT22;38420;53.150;6.370;2023-08-17T03:13:05;14.90;99.90
52509;DHT22;38420;53.150;6.370;2023-08-17T03:15:31;15.60;99.90
52509;DHT22;38420;53.150;6.370;2023-08-17T03:17:56;15.10;99.90
52509;DHT22;38420;53.150;6.370;2023-08-17T03:20:22;14.40;99.90
52509;DHT22;38420;53.150;6.370;2023-08-17T03:22:47;14.20;99.90
52509;DHT22;38420;53.150;6.370;2023-08-17T03:25:13;14.70;99.90
52509;DHT22;38420;53.150;6.370;2023-08-17T03:27:39;14.70;99.90
52509;DHT22;38420;53.150;6.370;2023-08-17T03:30:05;15.70;99.90
52509;DHT22;38420;53.150;6.370;2023-08-17T03:32:31;15.20;99.90
52509;DHT22;38420;53.150;6.370;2023-08-17T03:34:56;14.60;99.90
52509;DHT22;38420;53.150;6.370;2023-08-17T03:37:22;15.10;99.90
52509;DHT22;38420;53.150;6.370;2023-08-17T03:39:48;15.30;99.90
52509;DHT22;38420;53.150;6.370;2023-08-17T03:42:13;15.20;99.90
52509;DHT22;38420;53.150;6.370;2023-08-17T03:44:39;14.50;99.90
52509;DHT22;38420;53.150;6.370;2023-08-17T03:47:04;14.40;99.90
52509;DHT22;38420;53.150;6.370;2023-08-17T03:49:30;15.50;99.90
52509;DHT22;38420;53.150;6.370;2023-08-17T03:51:55;14.20;99.90
52509;DHT22;38420;53.150;6.370;2023-08-17T03:54:21;14.80;99.90
52509;DHT22;38420;53.150;6.370;2023-08-17T03:56:47;14.50;99.90
52509;DHT22;38420;53.150;6.370;2023-08-17T03:59:13;14.30;99.90
52509;DHT22;38420;53.150;6.370;2023-08-17T04:01:39;14.80;99.90
52509;DHT22;38420;53.150;6.370;2023-08-17T04:04:04;14.40;99.90
52509;DHT22;38420;53.150;6.370;2023-08-17T04:06:30;15.40;99.90
52509;DHT22;38420;53.150;6.370;2023-08-17T04:08:56;15.60;99.90
52509;DHT22;38420;53.150;6.370;2023-08-17T04:11:21;15.20;99.90
52509;DHT22;38420;53.150;6.370;2023-08-17T04:13:47;14.60;99.90
52509;DHT22;38420;53.150;6.370;2023-08-17T04:16:13;15.50;99.90
52509;DHT22;38420;53.150;6.370;2023-08-17T04:18:38;15.30;99.90
52509;DHT22;38420;53.150;6.370;2023-08-17T04:21:04;15.60;99.90
52509;DHT22;38420;53.150;6.370;2023-08-17T04:23:29;14.50;99.90
52509;DHT22;38420;53.150;6.370;2023-08-17T04:25:55;15.60;99.90
52509;DHT22;38420;53.150;6.370;2023-08-17T04:28:21;14.20;99.90
52509;DHT22;38420;53.150;6.370;2023-08-17T04:30:46;15.50;99.90
52509;DHT22;38420;53.150;6.370;2023-08-17T04:33:12;14.50;99.90
52509;DHT22;38420;53.150;6.370;2023-08-17T04:35:39;15.00;99.90
52509;DHT22;38420;53.150;6.370;2023-08-17T04:38:04;15.50;99.90
52509;DHT22;38420;53.150;6.370;2023-08-17T04:40:30;14.20;99.90
52509;DHT22;38420;53.150;6.370;2023-08-17T04:42:56;14.20;99.90
52509;DHT22;38420;53.150;6.370;2023-08-17T04:45:22;15.20;99.90
52509;DHT22;38420;53.150;6.370;2023-08-17T04:47:48;15.00;99.90
52509;DHT22;38420;53.150;6.370;2023-08-17T04:50:15;15.60;99.90
52509;DHT22;38420;53.150;6.370;2023-08-17T04:52:45;14.20;99.90
52509;DHT22;38420;53.150;6.370;2023-08-17T04:55:12;14.50;99.90
52509;DHT22;38420;53.150;6.370;2023-08-17T04:57:38;14.50;99.90
52509;DHT22;38420;53.150;6.370;2023-08-17T05:00:04;14.90;99.90
52509;DHT22;38420;53.150;6.370;2023-08-17T05:02:34;14.90;99.90
52509;DHT22;38420;53.150;6.370;2023-08-17T05:04:59;14.10;99.90
52509;DHT22;38420;53.150;6.370;2023-08-17T05:07:25;14.20;99.90
52509;DHT22;38420;53.150;6.370;2023-08-17T05:09:50;14.30;99.90
52509;DHT22;38420;53.150;6.370;2023-08-17T05:12:16;15.50;99.90
52509;DHT22;38420;53.150;6.370;2023-08-17T05:14:42;15.60;99.90
52509;DHT22;38420;53.150;6.370;2023-08-17T05:17:07;14.30;99.90
52509;DHT22;38420;53.150;6.370;2023-08-17T05:19:33;15.60;99.90
52509;DHT22;38420;53.150;6.370;2023-08-17T05:21:59;14.20;99.90
52509;DHT22;38420;53.150;6.370;2023-08-17T05:24:24;14.20;99.90
52509;DHT22;38420;53.150;6.370;2023-08-17T05:26:50;14.20;99.90
52509;DHT22;38420;53.150;6.370;2023-08-17T05:29:15;15.80;99.90
52509;DHT22;38420;53.150;6.370;2023-08-17T05:31:41;15.00;99.90
52509;DHT22;38420;53.150;6.370;2023-08-17T05:34:07;15.80;99.90
52509;DHT22;38420;53.150;6.370;2023-08-17T05:36:32;14.90;99.90
52509;DHT22;38420;53.150;6.370;2023-08-17T05:38:58;15.80;99.90
52509;DHT22;38420;53.150;6.370;2023-08-17T05:41:23;14.70;99.90
52509;DHT22;38420;53.150;6.370;2023-08-17T05:43:50;16.00;99.90
52509;DHT22;38420;53.150;6.370;2023-08-17T05:46:16;15.10;99.90
52509;DHT22;38420;53.150;6.370;2023-08-17T05:48:42;16.00;99.90
52509;DHT22;38420;53.150;6.370;2023-08-17T05:51:07;14.70;99.90
52509;DHT22;38420;53.150;6.370;2023-08-17T05:53:33;14.90;99.90
52509;DHT22;38420;53.150;6.370;2023-08-17T05:55:58;15.20;99.90
52509;DHT22;38420;53.150;6.370;2023-08-17T05:58:24;15.00;99.90
52509;DHT22;38420;53.150;6.370;2023-08-17T06:00:50;15.40;99.90
52509;DHT22;38420;53.150;6.370;2023-08-17T06:03:15;15.80;99.90
52509;DHT22;38420;53.150;6.370;2023-08-17T06:05:41;15.30;99.90
52509;DHT22;38420;53.150;6.370;2023-08-17T06:08:07;15.60;99.90
52509;DHT22;38420;53.150;6.370;2023-08-17T06:10:32;15.70;99.90
52509;DHT22;38420;53.150;6.370;2023-08-17T06:12:58;16.20;99.90
52509;DHT22;38420;53.150;6.370;2023-08-17T06:15:24;16.50;99.90
52509;DHT22;38420;53.150;6.370;2023-08-17T06:17:50;16.60;99.90
52509;DHT22;38420;53.150;6.370;2023-08-17T06:20:16;15.70;99.90
52509;DHT22;38420;53.150;6.370;2023-08-17T06:22:41;15.90;99.90
52509;DHT22;38420;53.150;6.370;2023-08-17T06:25:07;15.60;99.90
52509;DHT22;38420;53.150;6.370;2023-08-17T06:27:34;16.90;99.90
52509;DHT22;38420;53.150;6.370;2023-08-17T06:30:00;16.40;99.90
52509;DHT22;38420;53.150;6.370;2023-08-17T06:32:26;16.40;99.90
52509;DHT22;38420;53.150;6.370;2023-08-17T06:34:51;16.30;99.90
52509;DHT22;38420;53.150;6.370;2023-08-17T06:37:19;16.60;99.90
52509;DHT22;38420;53.150;6.370;2023-08-17T06:39:45;16.40;99.90
52509;DHT22;38420;53.150;6.370;2023-08-17T06:42:11;16.70;99.90
52509;DHT22;38420;53.150;6.370;2023-08-17T06:44:36;17.40;99.90
52509;DHT22;38420;53.150;6.370;2023-08-17T06:47:02;17.10;99.90
52509;DHT22;38420;53.150;6.370;2023-08-17T06:49:27;17.50;99.90
52509;DHT22;38420;53.150;6.370;2023-08-17T06:51:53;17.20;99.90
52509;DHT22;38420;53.150;6.370;2023-08-17T06:54:19;16.80;99.90
52509;DHT22;38420;53.150;6.370;2023-08-17T06:56:45;16.70;99.90
52509;DHT22;38420;53.150;6.370;2023-08-17T06:59:11;16.80;99.90
52509;DHT22;38420;53.150;6.370;2023-08-17T07:01:36;17.70;99.90
52509;DHT22;38420;53.150;6.370;2023-08-17T07:04:02;16.90;99.90
52509;DHT22;38420;53.150;6.370;2023-08-17T07:06:28;17.50;99.90
52509;DHT22;38420;53.150;6.370;2023-08-17T07:08:54;17.50;99.90
52509;DHT22;38420;53.150;6.370;2023-08-17T07:11:20;16.80;99.90
52509;DHT22;38420;53.150;6.370;2023-08-17T07:13:46;17.50;99.90
52509;DHT22;38420;53.150;6.370;2023-08-17T07:16:12;17.00;99.90
52509;DHT22;38420;53.150;6.370;2023-08-17T07:18:37;17.20;99.90
52509;DHT22;38420;53.150;6.370;2023-08-17T07:21:03;17.30;99.90
52509;DHT22;38420;53.150;6.370;2023-08-17T07:23:28;17.80;99.90
52509;DHT22;38420;53.150;6.370;2023-08-17T07:25:54;17.70;99.90
52509;DHT22;38420;53.150;6.370;2023-08-17T07:28:19;17.70;99.90
52509;DHT22;38420;53.150;6.370;2023-08-17T07:30:45;17.90;99.90
52509;DHT22;38420;53.150;6.370;2023-08-17T07:33:11;17.90;99.90
52509;DHT22;38420;53.150;6.370;2023-08-17T07:35:36;18.10;99.90
52509;DHT22;38420;53.150;6.370;2023-08-17T07:38:02;17.50;99.90
52509;DHT22;38420;53.150;6.370;2023-08-17T07:40:28;17.50;99.90
52509;DHT22;38420;53.150;6.370;2023-08-17T07:42:53;17.80;99.90
52509;DHT22;38420;53.150;6.370;2023-08-17T07:45:19;18.20;99.90
52509;DHT22;38420;53.150;6.370;2023-08-17T07:47:44;18.40;99.90
52509;DHT22;38420;53.150;6.370;2023-08-17T07:50:10;18.50;99.90
52509;DHT22;38420;53.150;6.370;2023-08-17T07:52:36;18.50;99.90
52509;DHT22;38420;53.150;6.370;2023-08-17T07:55:01;18.20;99.90
52509;DHT22;38420;53.150;6.370;2023-08-17T07:57:27;18.20;99.90
52509;DHT22;38420;53.150;6.370;2023-08-17T07:59:53;18.70;99.90
52509;DHT22;38420;53.150;6.370;2023-08-17T08:02:19;18.40;99.90
52509;DHT22;38420;53.150;6.370;2023-08-17T08:04:45;18.60;99.90
52509;DHT22;38420;53.150;6.370;2023-08-17T08:07:10;18.60;99.90
52509;DHT22;38420;53.150;6.370;2023-08-17T08:09:36;18.60;99.90
52509;DHT22;38420;53.150;6.370;2023-08-17T08:12:02;18.20;99.90
52509;DHT22;38420;53.150;6.370;2023-08-17T08:14:28;18.60;99.90
52509;DHT22;38420;53.150;6.370;2023-08-17T08:16:54;18.40;99.90
52509;DHT22;38420;53.150;6.370;2023-08-17T08:19:20;18.40;99.90
52509;DHT22;38420;53.150;6.370;2023-08-17T08:21:45;18.90;99.90
52509;DHT22;38420;53.150;6.370;2023-08-17T08:24:11;18.80;99.90
52509;DHT22;38420;53.150;6.370;2023-08-17T08:26:37;18.50;99.90
52509;DHT22;38420;53.150;6.370;2023-08-17T08:29:02;18.50;99.90
52509;DHT22;38420;53.150;6.370;2023-08-17T08:31:28;18.40;99.90
52509;DHT22;38420;53.150;6.370;2023-08-17T08:33:54;18.40;99.90
52509;DHT22;38420;53.150;6.370;2023-08-17T08:36:20;18.50;99.90
52509;DHT22;38420;53.150;6.370;2023-08-17T08:38:45;18.20;99.90
52509;DHT22;38420;53.150;6.370;2023-08-17T08:41:11;18.50;99.90
52509;DHT22;38420;53.150;6.370;2023-08-17T08:43:38;18.50;99.90
52509;DHT22;38420;53.150;6.370;2023-08-17T08:46:04;18.50;99.90
52509;DHT22;38420;53.150;6.370;2023-08-17T08:48:31;18.30;99.90
52509;DHT22;38420;53.150;6.370;2023-08-17T08:51:00;18.30;99.90
52509;DHT22;38420;53.150;6.370;2023-08-17T08:53:39;18.40;99.90
52509;DHT22;38420;53.150;6.370;2023-08-17T08:56:11;18.70;99.90
52509;DHT22;38420;53.150;6.370;2023-08-17T08:58:40;18.50;99.90
52509;DHT22;38420;53.150;6.370;2023-08-17T09:01:09;18.80;99.90
52509;DHT22;38420;53.150;6.370;2023-08-17T09:03:35;19.10;99.90
52509;DHT22;38420;53.150;6.370;2023-08-17T09:06:02;19.30;99.90
52509;DHT22;38420;53.150;6.370;2023-08-17T09:08:30;19.60;99.90
52509;DHT22;38420;53.150;6.370;2023-08-17T09:10:56;20.40;99.90
52509;DHT22;38420;53.150;6.370;2023-08-17T09:13:21;20.70;99.90
52509;DHT22;38420;53.150;6.370;2023-08-17T09:15:47;20.70;99.90
52509;DHT22;38420;53.150;6.370;2023-08-17T09:18:13;20.50;99.90
52509;DHT22;38420;53.150;6.370;2023-08-17T09:20:46;20.30;99.90
52509;DHT22;38420;53.150;6.370;2023-08-17T09:23:14;20.30;99.90
52509;DHT22;38420;53.150;6.370;2023-08-17T09:25:41;20.40;99.90
52509;DHT22;38420;53.150;6.370;2023-08-17T09:28:11;20.60;99.90
52509;DHT22;38420;53.150;6.370;2023-08-17T09:33:24;20.50;99.90
52509;DHT22;38420;53.150;6.370;2023-08-17T09:35:51;20.60;99.90
52509;DHT22;38420;53.150;6.370;2023-08-17T09:38:18;20.90;99.90
52509;DHT22;38420;53.150;6.370;2023-08-17T09:40:45;20.90;99.90
52509;DHT22;38420;53.150;6.370;2023-08-17T09:43:11;20.90;99.90
52509;DHT22;38420;53.150;6.370;2023-08-17T09:45:39;20.90;99.90
52509;DHT22;38420;53.150;6.370;2023-08-17T09:48:07;21.00;99.90
52509;DHT22;38420;53.150;6.370;2023-08-17T09:50:34;21.00;99.90
52509;DHT22;38420;53.150;6.370;2023-08-17T09:53:02;21.10;99.90
52509;DHT22;38420;53.150;6.370;2023-08-17T09:55:29;21.20;99.90
52509;DHT22;38420;53.150;6.370;2023-08-17T09:57:55;21.20;99.90
52509;DHT22;38420;53.150;6.370;2023-08-17T10:00:21;21.20;99.90
52509;DHT22;38420;53.150;6.370;2023-08-17T10:02:49;21.30;99.90
52509;DHT22;38420;53.150;6.370;2023-08-17T10:05:19;21.40;99.90
52509;DHT22;38420;53.150;6.370;2023-08-17T10:07:52;21.40;99.90
52509;DHT22;38420;53.150;6.370;2023-08-17T10:10:22;21.30;99.90
52509;DHT22;38420;53.150;6.370;2023-08-17T10:16:15;21.20;99.90
52509;DHT22;38420;53.150;6.370;2023-08-17T10:18:45;21.30;99.90
52509;DHT22;38420;53.150;6.370;2023-08-17T10:21:35;21.10;99.90
52509;DHT22;38420;53.150;6.370;2023-08-17T10:24:02;21.00;99.90
52509;DHT22;38420;53.150;6.370;2023-08-17T10:26:28;20.90;99.90
52509;DHT22;38420;53.150;6.370;2023-08-17T10:28:55;20.70;99.90
52509;DHT22;38420;53.150;6.370;2023-08-17T10:31:24;20.60;99.90
52509;DHT22;38420;53.150;6.370;2023-08-17T10:33:50;20.80;99.90
52509;DHT22;38420;53.150;6.370;2023-08-17T10:36:17;20.70;99.90
52509;DHT22;38420;53.150;6.370;2023-08-17T10:38:43;20.80;99.90
52509;DHT22;38420;53.150;6.370;2023-08-17T10:41:12;20.70;99.90
52509;DHT22;38420;53.150;6.370;2023-08-17T10:43:58;20.60;99.90
52509;DHT22;38420;53.150;6.370;2023-08-17T10:46:37;20.50;99.90
52509;DHT22;38420;53.150;6.370;2023-08-17T10:49:06;20.50;99.90
52509;DHT22;38420;53.150;6.370;2023-08-17T10:51:33;20.30;99.90
52509;DHT22;38420;53.150;6.370;2023-08-17T10:54:02;20.40;99.90
52509;DHT22;38420;53.150;6.370;2023-08-17T10:56:28;20.50;99.90
52509;DHT22;38420;53.150;6.370;2023-08-17T10:58:58;20.40;99.90
52509;DHT22;38420;53.150;6.370;2023-08-17T11:01:35;20.40;99.90
52509;DHT22;38420;53.150;6.370;2023-08-17T11:04:12;20.60;99.90
52509;DHT22;38420;53.150;6.370;2023-08-17T11:06:43;20.40;99.90
52509;DHT22;38420;53.150;6.370;2023-08-17T11:09:09;20.50;99.90
52509;DHT22;38420;53.150;6.370;2023-08-17T11:11:34;20.60;99.90
52509;DHT22;38420;53.150;6.370;2023-08-17T11:14:00;20.60;99.90
52509;DHT22;38420;53.150;6.370;2023-08-17T11:16:25;20.60;99.90
52509;DHT22;38420;53.150;6.370;2023-08-17T11:18:51;20.60;99.90
52509;DHT22;38420;53.150;6.370;2023-08-17T11:21:18;20.70;99.90
52509;DHT22;38420;53.150;6.370;2023-08-17T11:23:43;20.60;99.90
52509;DHT22;38420;53.150;6.370;2023-08-17T11:26:09;20.70;99.90
52509;DHT22;38420;53.150;6.370;2023-08-17T11:28:35;20.70;99.90
52509;DHT22;38420;53.150;6.370;2023-08-17T11:31:12;20.70;99.90
52509;DHT22;38420;53.150;6.370;2023-08-17T11:33:39;20.90;99.90
52509;DHT22;38420;53.150;6.370;2023-08-17T11:36:06;20.80;99.90
52509;DHT22;38420;53.150;6.370;2023-08-17T11:38:37;20.70;99.90
52509;DHT22;38420;53.150;6.370;2023-08-17T11:41:06;20.70;99.90
52509;DHT22;38420;53.150;6.370;2023-08-17T11:43:34;20.70;99.90
52509;DHT22;38420;53.150;6.370;2023-08-17T11:46:01;20.70;99.90
52509;DHT22;38420;53.150;6.370;2023-08-17T11:48:27;20.70;99.90
52509;DHT22;38420;53.150;6.370;2023-08-17T11:50:53;20.70;99.90
52509;DHT22;38420;53.150;6.370;2023-08-17T11:53:20;20.80;99.90
52509;DHT22;38420;53.150;6.370;2023-08-17T11:55:46;20.70;99.90
52509;DHT22;38420;53.150;6.370;2023-08-17T11:58:11;20.90;99.90
52509;DHT22;38420;53.150;6.370;2023-08-17T12:00:41;20.80;99.90
52509;DHT22;38420;53.150;6.370;2023-08-17T12:03:07;21.00;99.90
52509;DHT22;38420;53.150;6.370;2023-08-17T12:05:33;20.90;99.90
52509;DHT22;38420;53.150;6.370;2023-08-17T12:08:00;21.00;99.90
52509;DHT22;38420;53.150;6.370;2023-08-17T12:10:31;20.90;99.90
52509;DHT22;38420;53.150;6.370;2023-08-17T12:12:58;21.00;99.90
52509;DHT22;38420;53.150;6.370;2023-08-17T12:15:30;21.00;99.90
52509;DHT22;38420;53.150;6.370;2023-08-17T12:18:03;21.00;99.90
52509;DHT22;38420;53.150;6.370;2023-08-17T12:20:30;21.00;99.90
52509;DHT22;38420;53.150;6.370;2023-08-17T12:22:58;21.00;99.90
52509;DHT22;38420;53.150;6.370;2023-08-17T12:25:25;21.00;99.90
52509;DHT22;38420;53.150;6.370;2023-08-17T12:27:51;21.10;99.90
52509;DHT22;38420;53.150;6.370;2023-08-17T12:32:51;21.20;99.90
52509;DHT22;38420;53.150;6.370;2023-08-17T12:35:16;21.10;99.90
52509;DHT22;38420;53.150;6.370;2023-08-17T12:37:42;21.20;99.90
52509;DHT22;38420;53.150;6.370;2023-08-17T12:40:08;21.30;99.90
52509;DHT22;38420;53.150;6.370;2023-08-17T12:42:35;21.30;99.90
52509;DHT22;38420;53.150;6.370;2023-08-17T12:45:01;21.30;99.90
52509;DHT22;38420;53.150;6.370;2023-08-17T12:47:26;21.20;99.90
52509;DHT22;38420;53.150;6.370;2023-08-17T12:49:52;21.20;99.90
52509;DHT22;38420;53.150;6.370;2023-08-17T12:52:18;21.00;99.90
52509;DHT22;38420;53.150;6.370;2023-08-17T12:54:43;21.10;99.90
52509;DHT22;38420;53.150;6.370;2023-08-17T12:57:09;20.80;99.90
52509;DHT22;38420;53.150;6.370;2023-08-17T12:59:34;20.90;99.90
52509;DHT22;38420;53.150;6.370;2023-08-17T13:02:00;20.90;99.90
52509;DHT22;38420;53.150;6.370;2023-08-17T13:04:26;20.80;99.90
52509;DHT22;38420;53.150;6.370;2023-08-17T13:06:51;20.80;99.90
52509;DHT22;38420;53.150;6.370;2023-08-17T13:09:17;20.70;99.90
52509;DHT22;38420;53.150;6.370;2023-08-17T13:11:44;20.80;99.90
52509;DHT22;38420;53.150;6.370;2023-08-17T13:14:12;20.90;99.90
52509;DHT22;38420;53.150;6.370;2023-08-17T13:16:37;20.60;99.90
52509;DHT22;38420;53.150;6.370;2023-08-17T13:19:03;20.80;99.90
52509;DHT22;38420;53.150;6.370;2023-08-17T13:21:28;20.90;99.90
52509;DHT22;38420;53.150;6.370;2023-08-17T13:23:54;20.60;99.90
52509;DHT22;38420;53.150;6.370;2023-08-17T13:26:22;20.80;99.90
52509;DHT22;38420;53.150;6.370;2023-08-17T13:28:47;20.80;99.90
52509;DHT22;38420;53.150;6.370;2023-08-17T13:31:13;20.80;99.90
52509;DHT22;38420;53.150;6.370;2023-08-17T13:33:39;20.60;99.90
52509;DHT22;38420;53.150;6.370;2023-08-17T13:36:04;20.80;99.90
52509;DHT22;38420;53.150;6.370;2023-08-17T13:38:30;20.70;99.90
52509;DHT22;38420;53.150;6.370;2023-08-17T13:40:57;20.70;99.90
52509;DHT22;38420;53.150;6.370;2023-08-17T13:43:22;20.60;99.90
52509;DHT22;38420;53.150;6.370;2023-08-17T13:45:48;20.80;99.90
52509;DHT22;38420;53.150;6.370;2023-08-17T13:48:13;20.60;99.90
52509;DHT22;38420;53.150;6.370;2023-08-17T13:50:39;20.70;99.90
52509;DHT22;38420;53.150;6.370;2023-08-17T13:53:05;20.50;99.90
52509;DHT22;38420;53.150;6.370;2023-08-17T13:55:31;20.70;99.90
52509;DHT22;38420;53.150;6.370;2023-08-17T13:57:57;20.50;99.90
52509;DHT22;38420;53.150;6.370;2023-08-17T14:00:23;20.70;99.90
52509;DHT22;38420;53.150;6.370;2023-08-17T14:02:49;20.40;99.90
52509;DHT22;38420;53.150;6.370;2023-08-17T14:05:15;20.50;99.90
52509;DHT22;38420;53.150;6.370;2023-08-17T14:07:41;20.40;99.90
52509;DHT22;38420;53.150;6.370;2023-08-17T14:10:06;19.90;99.90
52509;DHT22;38420;53.150;6.370;2023-08-17T14:12:32;20.00;99.90
52509;DHT22;38420;53.150;6.370;2023-08-17T14:14:59;20.10;99.90
52509;DHT22;38420;53.150;6.370;2023-08-17T14:17:24;19.90;99.90
52509;DHT22;38420;53.150;6.370;2023-08-17T14:19:50;20.00;99.90
52509;DHT22;38420;53.150;6.370;2023-08-17T14:22:16;19.70;99.90
52509;DHT22;38420;53.150;6.370;2023-08-17T14:24:41;20.00;99.90
52509;DHT22;38420;53.150;6.370;2023-08-17T14:27:07;19.90;99.90
52509;DHT22;38420;53.150;6.370;2023-08-17T14:29:32;19.90;99.90
52509;DHT22;38420;53.150;6.370;2023-08-17T14:31:58;19.50;99.90
52509;DHT22;38420;53.150;6.370;2023-08-17T14:34:23;19.70;99.90
52509;DHT22;38420;53.150;6.370;2023-08-17T14:36:49;20.00;99.90
52509;DHT22;38420;53.150;6.370;2023-08-17T14:39:15;19.80;99.90
52509;DHT22;38420;53.150;6.370;2023-08-17T14:41:40;19.50;99.90
52509;DHT22;38420;53.150;6.370;2023-08-17T14:44:06;19.40;99.90
52509;DHT22;38420;53.150;6.370;2023-08-17T14:46:31;19.80;99.90
52509;DHT22;38420;53.150;6.370;2023-08-17T14:48:57;19.50;99.90
52509;DHT22;38420;53.150;6.370;2023-08-17T14:51:24;20.00;99.90
52509;DHT22;38420;53.150;6.370;2023-08-17T14:53:49;20.10;99.90
52509;DHT22;38420;53.150;6.370;2023-08-17T14:56:15;20.10;99.90
52509;DHT22;38420;53.150;6.370;2023-08-17T14:58:41;20.30;99.90
52509;DHT22;38420;53.150;6.370;2023-08-17T15:01:06;20.40;99.90
52509;DHT22;38420;53.150;6.370;2023-08-17T15:03:32;20.40;99.90
52509;DHT22;38420;53.150;6.370;2023-08-17T15:05:58;20.20;99.90
52509;DHT22;38420;53.150;6.370;2023-08-17T15:08:23;20.30;99.90
52509;DHT22;38420;53.150;6.370;2023-08-17T15:10:49;20.20;99.90
52509;DHT22;38420;53.150;6.370;2023-08-17T15:13:16;20.40;99.90
52509;DHT22;38420;53.150;6.370;2023-08-17T15:15:43;20.60;99.90
52509;DHT22;38420;53.150;6.370;2023-08-17T15:18:09;20.40;99.90
52509;DHT22;38420;53.150;6.370;2023-08-17T15:20:35;20.70;99.90
52509;DHT22;38420;53.150;6.370;2023-08-17T15:23:00;20.30;99.90
52509;DHT22;38420;53.150;6.370;2023-08-17T15:25:26;20.30;99.90
52509;DHT22;38420;53.150;6.370;2023-08-17T15:27:52;20.50;99.90
52509;DHT22;38420;53.150;6.370;2023-08-17T15:30:17;20.60;99.90
52509;DHT22;38420;53.150;6.370;2023-08-17T15:32:43;20.50;99.90
52509;DHT22;38420;53.150;6.370;2023-08-17T15:35:10;20.40;99.90